Warning: Javascript must be enabled to use all the features on this page!


Page Loading - Please Wait...

Click to hideNews Bulletins

Peak Streamflow for the Nation

USGS 14150800 WINBERRY CREEK NEAR LOWELL,OR

Lane County, Oregon
Hydrologic Unit Code 17090001
Latitude  43°54'52", Longitude 122°41'15" NAD27
Drainage area 43.9  square miles
Gage datum 863.70 feet above NGVD29
Output formats
Table
Graph
Tab-separated file
peakfq (watstore) format
Reselect output format
Water
Year
Date Gage
Height
(feet)
Stream-
flow
(cfs)
1964 1964-01-19 6.17 2,530
1965 1964-12-22 8.07 4,500
1966 1966-01-06 4.82 1,500
1967 1966-11-16 3.93 948
1968 1968-02-23 3.55 745
1969 1968-11-09 6.14 2,510
1970 1969-12-21 5.37 1,890
1971 1971-01-18 6.87 3,170
1972 1971-11-26 6.51 3,010
1973 1972-12-17 3.01 505
1974 1974-01-15 5.35 2,000
1975 1974-12-14 4.10 1,090
1976 1976-01-08 6.42 2,780
1977 1977-05-17 3.67 846
1978 1977-11-25 5.49 2,040
1979 1979-02-07 5.73 2,220
1980 1980-01-12 6.20 2,590
1981 1980-12-03 4.99 1,670
2001 2001-03-28 3.50 619
2002 2001-12-14 4.51 1,250
2003 2003-03-26 4.09 957
2004 2003-12-13 6.70 3,030
2005 2004-12-09 5.72 2,190
2006 2006-01-17 6.09 2,500
2007 2007-02-16 5.35 1,900
2008 2007-12-24 5.01 1,630
2009 2008-12-29 6.30 2,680
2010 2010-06-04 4.35 1,150
2011 2011-01-16 7.05 3,360
2012 2012-03-21 6.12 2,520
2013 2012-11-20 6.10 2,510
2014 2014-03-10 5.48 2,000
2015 2014-12-21 7.25 3,550
2017 2016-12-15 4.81 1,490
2018 2017-10-22 3.97 909